Time;durP1;ratioP1;P1;durP2;ratioP2;P2;SDS_P1;SDS_P2;PMS_P1;PMS_P2;Temp;Humidity;BMP_temperature;BMP_pressure;BME280_temperature;BME280_humidity;BME280_pressure;Samples;Min_cycle;Max_cycle;Signal;HPM_P1;HPM_P2
2022/03/03 00:01:42;;;;;;;438.40;60.80;;;1.80;99.90;;;;;;4953643;29;20479;-77
2022/03/03 00:04:11;;;;;;;317.33;62.63;;;1.80;99.90;;;;;;4955824;28;20476;-77
2022/03/03 00:06:40;;;;;;;316.47;56.07;;;1.80;99.90;;;;;;4955760;28;20456;-77
2022/03/03 00:09:08;;;;;;;314.53;79.57;;;1.70;99.90;;;;;;4957312;28;20873;-77
2022/03/03 00:11:38;;;;;;;314.40;63.50;;;1.70;99.90;;;;;;4957523;29;20824;-77
2022/03/03 00:14:07;;;;;;;368.87;72.43;;;1.70;99.90;;;;;;4957213;28;20837;-77
2022/03/03 00:16:36;;;;;;;456.80;60.13;;;1.60;99.90;;;;;;4955666;28;20510;-77
2022/03/03 00:19:05;;;;;;;418.17;70.27;;;1.60;99.90;;;;;;4957181;28;20444;-77
2022/03/03 00:21:34;;;;;;;311.30;60.10;;;1.60;99.90;;;;;;4955934;28;20515;-77
2022/03/03 00:24:02;;;;;;;314.23;62.00;;;1.60;99.90;;;;;;4955490;28;20479;-77
2022/03/03 00:26:30;;;;;;;592.57;70.53;;;1.50;99.90;;;;;;4956748;28;20455;-77
2022/03/03 00:28:58;;;;;;;1999.90;174.67;;;1.50;99.90;;;;;;4955424;28;20966;-78
2022/03/03 00:31:28;;;;;;;320.77;69.87;;;1.50;99.90;;;;;;4954942;28;20456;-77
2022/03/03 00:33:56;;;;;;;1600.83;127.73;;;1.50;99.90;;;;;;4955259;28;20515;-77
2022/03/03 00:36:24;;;;;;;317.93;58.67;;;1.50;99.90;;;;;;4955181;29;20829;-77
2022/03/03 00:38:53;;;;;;;470.83;61.30;;;1.40;99.90;;;;;;4955189;28;20451;-77
2022/03/03 00:41:21;;;;;;;1474.53;144.90;;;1.40;99.90;;;;;;4955070;28;20557;-77
2022/03/03 00:43:49;;;;;;;638.37;69.77;;;1.40;99.90;;;;;;4954992;28;20497;-77
2022/03/03 00:46:18;;;;;;;317.00;77.40;;;1.30;99.90;;;;;;4956191;29;20530;-77
2022/03/03 00:48:47;;;;;;;1493.10;103.57;;;1.30;99.90;;;;;;4950626;28;20468;-78
2022/03/03 00:51:15;;;;;;;353.60;58.63;;;1.30;99.90;;;;;;4948561;29;20587;-77
2022/03/03 00:53:43;;;;;;;1752.70;139.07;;;1.30;99.90;;;;;;4954835;28;20855;-77
2022/03/03 00:56:12;;;;;;;317.43;61.00;;;1.20;99.90;;;;;;4954941;28;20543;-77
2022/03/03 00:58:40;;;;;;;1988.03;159.97;;;1.20;99.90;;;;;;4956077;28;20451;-77
2022/03/03 01:01:08;;;;;;;349.50;60.50;;;1.20;99.90;;;;;;4954661;29;20468;-77
2022/03/03 01:03:37;;;;;;;434.80;52.17;;;1.20;99.90;;;;;;4955790;28;21081;-77
2022/03/03 01:06:06;;;;;;;1623.70;141.77;;;1.10;99.90;;;;;;4956277;28;20454;-77
2022/03/03 01:08:34;;;;;;;485.70;49.37;;;1.10;99.90;;;;;;4954677;28;20539;-77
2022/03/03 01:11:03;;;;;;;1613.43;140.50;;;1.10;99.90;;;;;;4956149;28;20471;-77
2022/03/03 01:13:34;;;;;;;475.07;61.67;;;1.10;99.90;;;;;;4954544;28;20472;-77
2022/03/03 01:16:02;;;;;;;1987.47;176.03;;;1.10;99.90;;;;;;4955631;28;20461;-77
2022/03/03 01:18:31;;;;;;;386.73;53.23;;;1.10;99.90;;;;;;4955739;28;20443;-77
2022/03/03 01:20:59;;;;;;;315.97;68.97;;;1.10;99.90;;;;;;4954393;29;20866;-77
2022/03/03 01:23:29;;;;;;;1808.73;139.83;;;1.00;99.90;;;;;;4955615;28;20992;-77
2022/03/03 01:25:57;;;;;;;590.43;97.30;;;1.00;99.90;;;;;;4955665;28;20972;-77
2022/03/03 01:28:25;;;;;;;1596.73;119.43;;;1.00;99.90;;;;;;4954435;29;20554;-78
2022/03/03 01:30:53;;;;;;;316.63;53.13;;;0.90;99.90;;;;;;4954525;28;20562;-77
2022/03/03 01:33:22;;;;;;;319.20;51.80;;;0.90;99.90;;;;;;4954315;28;20999;-77
2022/03/03 01:35:50;;;;;;;1348.47;126.60;;;0.90;99.90;;;;;;4955312;28;20545;-77
2022/03/03 01:38:18;;;;;;;520.63;71.27;;;0.90;99.90;;;;;;4954343;28;20850;-77
2022/03/03 01:40:48;;;;;;;317.07;68.27;;;0.80;99.90;;;;;;4954313;28;20889;-77
2022/03/03 01:43:16;;;;;;;1912.13;170.33;;;0.80;99.90;;;;;;4953479;28;20491;-77
2022/03/03 01:45:45;;;;;;;318.90;63.40;;;0.80;99.90;;;;;;4954276;28;20460;-77
2022/03/03 01:48:13;;;;;;;1946.77;150.63;;;0.80;99.90;;;;;;4954091;29;20546;-77
2022/03/03 01:50:41;;;;;;;327.90;65.87;;;0.80;99.90;;;;;;4954150;28;20476;-76
2022/03/03 01:53:10;;;;;;;1621.60;132.67;;;0.80;99.90;;;;;;4955383;28;20459;-77
2022/03/03 01:55:38;;;;;;;529.53;60.57;;;0.70;99.90;;;;;;4954199;28;20495;-77
2022/03/03 01:58:08;;;;;;;1727.97;158.37;;;0.70;99.90;;;;;;4955364;28;20956;-77
2022/03/03 02:00:36;;;;;;;147.80;50.10;;;0.70;99.90;;;;;;4953950;29;20530;-77
2022/03/03 02:03:06;;;;;;;1476.93;125.47;;;0.70;99.90;;;;;;4955552;28;20561;-77
2022/03/03 02:05:35;;;;;;;1820.37;134.97;;;0.60;99.90;;;;;;4954072;28;20815;-76
2022/03/03 02:08:03;;;;;;;320.77;72.20;;;0.60;99.90;;;;;;4954048;28;20461;-77
2022/03/03 02:10:32;;;;;;;398.63;67.07;;;0.60;99.90;;;;;;4954823;28;20521;-77
2022/03/03 02:13:01;;;;;;;1133.87;96.07;;;0.50;99.90;;;;;;4953928;28;20836;-76
2022/03/03 02:15:30;;;;;;;1626.00;114.70;;;0.50;99.90;;;;;;4953960;28;20449;-77
2022/03/03 02:17:59;;;;;;;1230.33;116.93;;;0.50;99.90;;;;;;4955097;29;20507;-77
2022/03/03 02:20:34;;;;;;;1964.00;157.17;;;0.50;99.90;;;;;;4953871;28;20605;-77
2022/03/03 02:23:02;;;;;;;1854.47;179.43;;;0.50;99.90;;;;;;4953772;28;20472;-77
2022/03/03 02:25:30;;;;;;;1351.03;130.00;;;0.50;99.90;;;;;;4953873;28;20462;-77
2022/03/03 02:27:58;;;;;;;1501.23;123.77;;;0.40;99.90;;;;;;4953867;28;20461;-77
2022/03/03 02:30:26;;;;;;;469.83;85.77;;;0.40;99.90;;;;;;4953436;29;20570;-77
2022/03/03 02:32:54;;;;;;;431.27;76.20;;;0.40;99.90;;;;;;4953616;28;20491;-77
2022/03/03 02:35:23;;;;;;;593.43;71.07;;;0.30;99.90;;;;;;4953735;28;20495;-77
2022/03/03 02:37:52;;;;;;;1972.33;154.57;;;0.30;99.90;;;;;;4953742;29;20454;-77
2022/03/03 02:40:21;;;;;;;1940.40;161.07;;;0.30;99.90;;;;;;4953672;29;20443;-76
2022/03/03 02:42:50;;;;;;;1513.17;113.53;;;0.30;99.90;;;;;;4955016;28;20474;-77
2022/03/03 02:45:19;;;;;;;1999.90;316.57;;;0.30;99.90;;;;;;4953636;28;20505;-77
2022/03/03 02:47:48;;;;;;;1802.83;229.63;;;0.30;99.90;;;;;;4955099;28;20450;-77
2022/03/03 02:50:19;;;;;;;1387.30;158.80;;;0.30;99.90;;;;;;4953643;28;20580;-77
2022/03/03 02:52:48;;;;;;;520.67;104.50;;;0.30;99.90;;;;;;4953218;28;20513;-76
2022/03/03 02:55:20;;;;;;;1999.90;289.00;;;0.30;99.90;;;;;;4958311;29;20521;-77
2022/03/03 02:57:54;;;;;;;1245.67;135.53;;;0.30;99.90;;;;;;4957023;28;20441;-77
2022/03/03 03:00:24;;;;;;;1927.77;247.53;;;0.40;99.90;;;;;;4957147;29;20478;-77
2022/03/03 03:02:52;;;;;;;617.93;89.10;;;0.40;99.90;;;;;;4957009;28;20514;-77
2022/03/03 03:05:21;;;;;;;1999.90;370.63;;;0.40;99.90;;;;;;4956863;28;20453;-77
2022/03/03 03:07:49;;;;;;;469.93;100.27;;;0.50;99.90;;;;;;4956841;29;20471;-77
2022/03/03 03:10:19;;;;;;;1999.90;353.00;;;0.50;99.90;;;;;;4956793;28;20499;-77
2022/03/03 03:12:47;;;;;;;1999.90;335.83;;;0.50;99.90;;;;;;4956601;29;20466;-77
2022/03/03 03:15:17;;;;;;;614.40;118.60;;;0.50;99.90;;;;;;4958113;28;20478;-77
2022/03/03 03:17:45;;;;;;;842.77;101.63;;;0.50;99.90;;;;;;4954610;29;20535;-77
2022/03/03 03:20:13;;;;;;;475.37;76.60;;;0.50;99.90;;;;;;4957902;28;20444;-77
2022/03/03 03:22:42;;;;;;;915.97;109.80;;;0.50;99.90;;;;;;4937410;28;20471;-77
2022/03/03 03:25:11;;;;;;;1999.90;340.50;;;0.50;99.90;;;;;;4937538;28;20491;-77
2022/03/03 03:27:43;;;;;;;1976.47;268.20;;;0.50;99.90;;;;;;4944007;28;20473;-77
2022/03/03 03:30:12;;;;;;;656.97;130.20;;;0.50;99.90;;;;;;4956615;29;20475;-77
2022/03/03 03:32:41;;;;;;;614.17;90.53;;;0.50;99.90;;;;;;4956601;29;20984;-77
2022/03/03 03:35:11;;;;;;;1999.90;355.20;;;0.50;99.90;;;;;;4956482;29;20452;-77
2022/03/03 03:37:40;;;;;;;1999.90;331.43;;;0.50;99.90;;;;;;4954198;29;21062;-77
2022/03/03 03:40:09;;;;;;;1442.97;156.40;;;0.50;99.90;;;;;;4956321;28;20545;-77
2022/03/03 03:42:38;;;;;;;1999.90;328.37;;;0.50;99.90;;;;;;4956195;28;21030;-78
2022/03/03 03:45:09;;;;;;;1999.90;318.53;;;0.50;99.90;;;;;;4956194;28;20940;-77
2022/03/03 03:47:38;;;;;;;552.80;97.13;;;0.50;99.90;;;;;;4956431;28;20491;-77
2022/03/03 03:50:08;;;;;;;656.40;125.53;;;0.50;99.90;;;;;;4956289;28;21034;-77
2022/03/03 03:52:36;;;;;;;536.43;110.20;;;0.50;99.90;;;;;;4956020;28;20586;-78
2022/03/03 03:55:06;;;;;;;496.87;113.77;;;0.50;99.90;;;;;;4956244;28;20450;-78
2022/03/03 03:57:34;;;;;;;1999.90;293.97;;;0.50;99.90;;;;;;4956095;29;20469;-77
2022/03/03 04:00:05;;;;;;;1999.90;374.20;;;0.50;99.90;;;;;;4956007;28;20447;-77
2022/03/03 04:02:41;;;;;;;672.10;123.87;;;0.50;99.90;;;;;;4957168;28;20458;-77
2022/03/03 04:05:10;;;;;;;655.63;129.13;;;0.50;99.90;;;;;;4955185;28;20451;-77
2022/03/03 04:07:39;;;;;;;853.73;112.63;;;0.40;99.90;;;;;;4954833;28;20457;-77
2022/03/03 04:10:08;;;;;;;530.93;103.90;;;0.40;99.90;;;;;;4955653;28;20455;-77
2022/03/03 04:12:37;;;;;;;622.73;116.43;;;0.40;99.90;;;;;;4956323;29;20486;-77
2022/03/03 04:15:06;;;;;;;807.50;141.53;;;0.40;99.90;;;;;;4955525;29;20456;-77
2022/03/03 04:17:34;;;;;;;1999.90;245.30;;;0.30;99.90;;;;;;4955650;29;20963;-77
2022/03/03 04:20:07;;;;;;;585.63;71.93;;;0.30;99.90;;;;;;4956785;29;20471;-77
2022/03/03 04:22:36;;;;;;;1999.90;267.40;;;0.30;99.90;;;;;;4955395;28;20498;-77
2022/03/03 04:25:05;;;;;;;584.40;96.53;;;0.20;99.90;;;;;;4955561;28;20977;-77
2022/03/03 04:27:34;;;;;;;1231.87;115.77;;;0.20;99.90;;;;;;4955495;28;20462;-77
2022/03/03 04:30:02;;;;;;;1999.90;301.63;;;0.20;99.90;;;;;;4955379;29;20449;-77
2022/03/03 04:32:30;;;;;;;1999.90;255.43;;;0.20;99.90;;;;;;4953014;28;20494;-77
2022/03/03 04:34:59;;;;;;;1700.87;158.93;;;0.10;99.90;;;;;;4956547;28;20924;-77
2022/03/03 04:37:30;;;;;;;1376.87;158.50;;;0.10;99.90;;;;;;4955192;28;20514;-76
2022/03/03 04:39:58;;;;;;;1855.60;217.10;;;0.10;99.90;;;;;;4955294;28;20442;-77
2022/03/03 04:42:26;;;;;;;1164.90;115.47;;;0.10;99.90;;;;;;4956489;28;20483;-77
2022/03/03 04:44:55;;;;;;;540.27;96.40;;;0.00;99.90;;;;;;4956430;28;20438;-77
2022/03/03 04:47:23;;;;;;;1999.90;211.87;;;0.00;99.90;;;;;;4956593;28;20543;-76
2022/03/03 04:49:51;;;;;;;1999.90;287.23;;;0.00;99.90;;;;;;4955059;29;20470;-77
2022/03/03 04:52:19;;;;;;;1999.90;291.13;;;0.00;99.90;;;;;;4955847;29;20492;-77
2022/03/03 04:54:49;;;;;;;619.30;102.37;;;0.00;99.90;;;;;;4956219;28;20470;-77
2022/03/03 04:57:18;;;;;;;1731.43;183.07;;;0.00;99.90;;;;;;4936106;29;20455;-77
2022/03/03 04:59:46;;;;;;;838.27;95.43;;;0.00;99.90;;;;;;4935635;29;20554;-76
2022/03/03 05:02:14;;;;;;;1999.90;332.40;;;-0.10;99.90;;;;;;4936888;29;20471;-76
2022/03/03 05:04:43;;;;;;;1999.90;337.47;;;-0.10;99.90;;;;;;4935609;29;20887;-77
2022/03/03 05:07:11;;;;;;;719.33;119.33;;;-0.10;99.90;;;;;;4937080;29;20533;-76
2022/03/03 05:09:39;;;;;;;1999.90;271.03;;;-0.10;99.90;;;;;;4935508;29;20980;-77
2022/03/03 05:12:10;;;;;;;1999.90;297.17;;;-0.10;99.90;;;;;;4942670;29;21056;-77
2022/03/03 05:14:38;;;;;;;1981.67;322.50;;;-0.10;99.90;;;;;;4954687;28;20478;-76
2022/03/03 05:17:06;;;;;;;1999.90;231.53;;;-0.10;99.90;;;;;;4954520;28;20498;-76
2022/03/03 05:19:34;;;;;;;1999.90;324.20;;;-0.10;99.90;;;;;;4954522;29;20549;-76
2022/03/03 05:22:03;;;;;;;1999.90;331.03;;;-0.20;99.90;;;;;;4954381;28;20470;-77
2022/03/03 05:24:31;;;;;;;1999.90;268.43;;;-0.10;99.90;;;;;;4955734;29;20484;-77
2022/03/03 05:27:00;;;;;;;1999.90;256.93;;;-0.10;99.90;;;;;;4954373;28;20454;-77
2022/03/03 05:29:29;;;;;;;1995.10;252.10;;;-0.10;99.90;;;;;;4955377;28;20971;-77
2022/03/03 05:31:58;;;;;;;622.13;106.83;;;-0.10;99.90;;;;;;4952026;28;20546;-77
2022/03/03 05:34:27;;;;;;;1820.93;253.20;;;-0.10;99.90;;;;;;4954340;28;20974;-77
2022/03/03 05:36:56;;;;;;;1999.90;311.57;;;-0.10;99.90;;;;;;4954383;28;20541;-77
2022/03/03 05:39:24;;;;;;;1999.90;342.53;;;-0.10;99.90;;;;;;4953576;29;20455;-76
2022/03/03 05:41:55;;;;;;;561.67;96.77;;;-0.10;99.90;;;;;;4954195;28;20472;-77
2022/03/03 05:44:24;;;;;;;503.73;109.93;;;-0.10;99.90;;;;;;4954245;29;20818;-77
2022/03/03 05:46:55;;;;;;;1789.43;217.27;;;-0.10;99.90;;;;;;4954296;29;20454;-77
2022/03/03 05:49:24;;;;;;;1676.87;226.53;;;-0.20;99.90;;;;;;4954109;28;20465;-77
2022/03/03 05:51:52;;;;;;;553.67;120.47;;;-0.10;99.90;;;;;;4955341;29;20449;-77
2022/03/03 05:54:21;;;;;;;1999.90;317.67;;;-0.10;99.90;;;;;;4954103;28;20470;-77
2022/03/03 05:56:54;;;;;;;1999.90;338.27;;;-0.10;99.90;;;;;;4953561;28;20490;-76
2022/03/03 05:59:25;;;;;;;1918.27;221.10;;;-0.10;99.90;;;;;;4953983;29;20450;-76
2022/03/03 06:01:55;;;;;;;663.30;125.63;;;-0.10;99.90;;;;;;4954055;28;20857;-76
2022/03/03 06:04:27;;;;;;;435.50;116.37;;;-0.10;99.90;;;;;;4953432;28;20561;-77
2022/03/03 06:07:00;;;;;;;1999.90;346.77;;;-0.10;99.90;;;;;;4955489;28;20446;-77
2022/03/03 06:09:32;;;;;;;473.90;110.40;;;-0.10;99.90;;;;;;4954137;29;20541;-76
2022/03/03 06:12:06;;;;;;;1999.90;317.33;;;-0.10;99.90;;;;;;4955361;29;20523;-77
2022/03/03 06:14:39;;;;;;;917.40;125.00;;;-0.10;99.90;;;;;;4955719;29;20427;-77
2022/03/03 06:17:10;;;;;;;1999.90;272.77;;;-0.10;99.90;;;;;;4955284;29;20458;-77
2022/03/03 06:19:41;;;;;;;1710.27;207.80;;;-0.20;99.90;;;;;;4955383;28;20427;-77
2022/03/03 06:22:11;;;;;;;1841.67;218.77;;;-0.20;99.90;;;;;;4955327;29;20455;-77
2022/03/03 06:24:40;;;;;;;1999.90;278.30;;;-0.20;99.90;;;;;;4955292;29;20538;-77
2022/03/03 06:27:09;;;;;;;1999.90;246.10;;;-0.20;99.90;;;;;;4953823;29;20460;-76
2022/03/03 06:29:38;;;;;;;570.10;113.07;;;-0.20;99.90;;;;;;4956327;28;20486;-76
2022/03/03 06:32:08;;;;;;;690.77;124.23;;;-0.20;99.90;;;;;;4957343;28;20465;-77
2022/03/03 06:34:37;;;;;;;1999.90;308.40;;;-0.20;99.90;;;;;;4957578;28;20452;-77
2022/03/03 06:37:06;;;;;;;1999.90;275.27;;;-0.20;99.90;;;;;;4958921;28;20812;-77
2022/03/03 06:39:34;;;;;;;1999.90;221.57;;;-0.20;99.90;;;;;;4957392;29;20951;-77
2022/03/03 06:42:03;;;;;;;1308.80;182.93;;;-0.20;99.90;;;;;;4958808;29;20481;-77
2022/03/03 06:44:32;;;;;;;1873.33;225.67;;;-0.20;99.90;;;;;;4958631;29;20435;-77
2022/03/03 06:47:00;;;;;;;1999.90;318.90;;;-0.20;99.90;;;;;;4958494;28;20450;-77
2022/03/03 06:49:30;;;;;;;608.30;97.63;;;-0.20;99.90;;;;;;4957089;28;20461;-77
2022/03/03 06:52:03;;;;;;;515.47;104.13;;;-0.20;99.90;;;;;;4958599;29;20450;-77
2022/03/03 06:54:33;;;;;;;578.80;111.83;;;-0.20;99.90;;;;;;4958562;29;20565;-77
2022/03/03 06:57:02;;;;;;;630.43;107.93;;;-0.20;99.90;;;;;;4957233;29;20543;-77
2022/03/03 06:59:33;;;;;;;1999.90;300.13;;;-0.20;99.90;;;;;;4956938;28;20533;-76
2022/03/03 07:02:02;;;;;;;637.60;122.57;;;-0.20;99.90;;;;;;4956989;29;20459;-77
2022/03/03 07:04:34;;;;;;;535.03;115.47;;;-0.20;99.90;;;;;;4956926;28;20455;-77
2022/03/03 07:07:02;;;;;;;1784.47;187.20;;;-0.10;99.90;;;;;;4957036;28;20485;-77
2022/03/03 07:09:31;;;;;;;1999.90;360.20;;;-0.10;99.90;;;;;;4956861;29;20913;-76
2022/03/03 07:12:01;;;;;;;405.17;90.47;;;-0.10;99.90;;;;;;4957932;28;20435;-77
2022/03/03 07:14:29;;;;;;;1999.90;389.30;;;0.00;99.90;;;;;;4956607;28;20471;-77
2022/03/03 07:17:02;;;;;;;1999.90;336.93;;;0.00;99.90;;;;;;4957933;28;20442;-77
2022/03/03 07:19:49;;;;;;;1999.90;335.93;;;0.10;99.90;;;;;;4956994;29;20458;-78
2022/03/03 07:22:20;;;;;;;693.83;105.40;;;0.10;99.90;;;;;;4956635;28;20472;-77
2022/03/03 07:24:57;;;;;;;1999.90;330.80;;;0.20;99.90;;;;;;4957864;28;20901;-77
2022/03/03 07:27:26;;;;;;;506.33;109.90;;;0.30;99.90;;;;;;4956631;28;20446;-76
2022/03/03 07:29:57;;;;;;;621.07;114.27;;;0.30;99.90;;;;;;4956438;28;20509;-76
2022/03/03 07:32:33;;;;;;;462.33;93.23;;;0.40;99.90;;;;;;4957002;28;20470;-77
2022/03/03 07:35:09;;;;;;;165.07;82.53;;;0.40;99.90;;;;;;4957730;28;20460;-76
2022/03/03 07:37:41;;;;;;;489.77;84.63;;;0.50;99.90;;;;;;4956464;28;21005;-77
2022/03/03 07:40:11;;;;;;;548.50;103.10;;;0.60;99.90;;;;;;4955059;28;20451;-77
2022/03/03 07:42:40;;;;;;;677.80;132.67;;;0.60;99.90;;;;;;4956364;29;20483;-77
2022/03/03 07:45:09;;;;;;;669.43;127.33;;;0.70;99.90;;;;;;4956247;28;20449;-77
2022/03/03 07:47:39;;;;;;;588.20;119.83;;;0.70;99.90;;;;;;4956445;29;20463;-77
2022/03/03 07:50:09;;;;;;;504.40;99.50;;;0.70;99.90;;;;;;4956137;28;20493;-76
2022/03/03 07:52:37;;;;;;;673.83;127.17;;;0.80;99.90;;;;;;4956088;28;20490;-77
2022/03/03 07:55:07;;;;;;;515.27;109.20;;;0.80;99.90;;;;;;4957328;28;20477;-77
2022/03/03 07:57:39;;;;;;;788.07;142.73;;;0.90;99.90;;;;;;4955972;28;20960;-77
2022/03/03 08:00:10;;;;;;;717.97;141.57;;;1.00;99.90;;;;;;4956096;29;20505;-76
2022/03/03 08:02:42;;;;;;;528.10;122.77;;;1.10;99.90;;;;;;4957629;28;20526;-77
2022/03/03 08:05:11;;;;;;;512.83;104.37;;;1.20;99.90;;;;;;4957518;28;20451;-77
2022/03/03 08:07:44;;;;;;;678.87;111.87;;;1.20;99.90;;;;;;4956059;28;20491;-77
2022/03/03 08:10:14;;;;;;;448.87;88.83;;;1.30;99.90;;;;;;4956099;29;20453;-77
2022/03/03 08:12:43;;;;;;;716.87;136.07;;;1.40;99.90;;;;;;4957664;28;20537;-78
2022/03/03 08:15:13;;;;;;;648.00;143.57;;;1.50;99.90;;;;;;4956448;28;20571;-77
2022/03/03 08:17:44;;;;;;;1999.90;315.90;;;1.60;99.90;;;;;;4956366;28;20519;-77
2022/03/03 08:20:14;;;;;;;785.60;145.10;;;1.80;99.90;;;;;;4956222;28;20453;-77
2022/03/03 08:22:42;;;;;;;615.43;131.07;;;2.00;99.90;;;;;;4956446;28;20499;-77
2022/03/03 08:25:11;;;;;;;1011.10;179.50;;;2.10;99.90;;;;;;4958254;28;20455;-77
2022/03/03 08:27:40;;;;;;;1242.50;222.40;;;2.30;99.90;;;;;;4958147;28;20458;-78
2022/03/03 08:30:10;;;;;;;1150.00;216.30;;;2.40;99.90;;;;;;4957191;28;20463;-78
2022/03/03 08:32:41;;;;;;;1145.23;172.43;;;2.50;99.90;;;;;;4958145;29;20516;-77
2022/03/03 08:35:16;;;;;;;713.23;123.17;;;2.70;99.90;;;;;;4958246;28;20465;-77
2022/03/03 08:37:51;;;;;;;990.60;201.20;;;2.80;99.90;;;;;;4956730;29;20474;-78
2022/03/03 08:40:19;;;;;;;828.07;160.47;;;2.90;99.90;;;;;;4956684;29;20446;-78
2022/03/03 08:42:51;;;;;;;1471.47;194.27;;;3.00;99.90;;;;;;4956473;28;20990;-78
2022/03/03 08:45:22;;;;;;;1184.80;179.57;;;3.10;99.90;;;;;;4956739;29;20498;-78
2022/03/03 08:47:57;;;;;;;1394.73;204.87;;;3.20;99.90;;;;;;4957701;29;20530;-78
2022/03/03 08:50:34;;;;;;;1240.27;195.67;;;3.30;99.90;;;;;;4956594;29;20460;-78
2022/03/03 08:53:05;;;;;;;1270.13;194.87;;;3.40;99.90;;;;;;4956148;29;20488;-78
2022/03/03 08:55:35;;;;;;;1110.90;193.40;;;3.40;99.90;;;;;;4956458;29;20563;-78
2022/03/03 08:58:04;;;;;;;1254.33;215.40;;;3.40;99.90;;;;;;4958918;29;20452;-78
2022/03/03 09:00:32;;;;;;;1340.67;209.30;;;3.50;99.90;;;;;;4961392;28;20454;-77
2022/03/03 09:03:01;;;;;;;1085.13;174.73;;;3.50;99.90;;;;;;4957550;28;20499;-77
2022/03/03 09:05:31;;;;;;;1145.63;181.43;;;3.50;99.90;;;;;;4957023;29;20489;-77
2022/03/03 09:07:59;;;;;;;1053.43;180.40;;;3.50;99.90;;;;;;4957410;28;20522;-77
2022/03/03 09:10:28;;;;;;;963.40;176.67;;;3.50;99.90;;;;;;4957049;28;20482;-77
2022/03/03 09:12:56;;;;;;;992.33;150.97;;;3.50;99.90;;;;;;4956706;29;20482;-78
2022/03/03 09:15:24;;;;;;;1200.43;172.97;;;3.40;99.90;;;;;;4956556;28;20474;-78
2022/03/03 09:17:53;;;;;;;794.10;131.67;;;3.30;99.90;;;;;;4957935;29;20984;-78
2022/03/03 09:20:21;;;;;;;860.53;149.83;;;3.20;99.90;;;;;;4956789;28;20453;-78
2022/03/03 09:22:55;;;;;;;856.63;144.47;;;3.10;99.90;;;;;;4956095;29;20477;-77
2022/03/03 09:25:24;;;;;;;938.73;164.53;;;3.00;99.90;;;;;;4955814;28;20441;-78
2022/03/03 09:27:52;;;;;;;1011.40;175.53;;;2.90;99.90;;;;;;4955572;29;20469;-77
2022/03/03 09:30:21;;;;;;;661.47;137.10;;;2.90;99.90;;;;;;4955690;28;20446;-78
2022/03/03 09:32:49;;;;;;;942.83;157.27;;;2.90;99.90;;;;;;4955693;28;20475;-77
2022/03/03 09:35:17;;;;;;;806.87;148.70;;;2.90;99.90;;;;;;4955303;28;20474;-77
2022/03/03 09:37:46;;;;;;;694.13;148.77;;;2.90;99.90;;;;;;4955169;28;20891;-77
2022/03/03 09:40:15;;;;;;;814.37;120.10;;;2.90;99.90;;;;;;4956726;28;20509;-77
2022/03/03 09:42:56;;;;;;;614.10;118.80;;;3.00;99.90;;;;;;4955277;29;21109;-77
2022/03/03 09:45:25;;;;;;;813.47;156.17;;;3.00;99.90;;;;;;4955369;29;20464;-77
2022/03/03 09:47:54;;;;;;;716.83;110.33;;;3.00;99.90;;;;;;4955556;28;20492;-78
2022/03/03 09:50:24;;;;;;;831.10;129.37;;;3.00;99.90;;;;;;4956766;29;20496;-78
2022/03/03 09:52:53;;;;;;;838.90;134.00;;;3.10;99.90;;;;;;4955554;28;20466;-77
2022/03/03 09:55:23;;;;;;;747.90;116.90;;;3.10;99.90;;;;;;4955374;29;20470;-78
2022/03/03 09:57:52;;;;;;;852.87;142.87;;;3.10;99.90;;;;;;4956518;28;20462;-78
2022/03/03 10:00:21;;;;;;;790.53;136.07;;;3.20;99.90;;;;;;4955691;29;20477;-78
2022/03/03 10:03:00;;;;;;;908.03;163.63;;;3.20;99.90;;;;;;4955105;28;20478;-78
2022/03/03 10:05:30;;;;;;;915.37;127.77;;;3.20;99.90;;;;;;4959456;29;20449;-77
2022/03/03 10:08:07;;;;;;;707.67;136.80;;;3.30;99.90;;;;;;4959783;28;20534;-77
2022/03/03 10:10:39;;;;;;;753.17;163.37;;;3.30;99.90;;;;;;4958684;29;20438;-78
2022/03/03 10:13:09;;;;;;;1044.00;173.93;;;3.40;99.90;;;;;;4958761;29;20847;-78
2022/03/03 10:15:38;;;;;;;993.77;188.87;;;3.40;99.90;;;;;;4959919;29;20490;-78
2022/03/03 10:18:10;;;;;;;979.40;164.47;;;3.50;99.90;;;;;;4961057;28;20453;-77
2022/03/03 10:20:46;;;;;;;1003.57;170.97;;;3.50;99.90;;;;;;4963353;29;20482;-77
2022/03/03 10:23:15;;;;;;;991.83;180.93;;;3.60;99.90;;;;;;4965138;29;20489;-77
2022/03/03 10:25:45;;;;;;;943.23;171.90;;;3.60;99.90;;;;;;4961517;28;20886;-77
2022/03/03 10:28:17;;;;;;;986.50;161.77;;;3.70;99.90;;;;;;4964396;29;20861;-78
2022/03/03 10:30:55;;;;;;;950.13;162.37;;;3.70;99.90;;;;;;4962570;29;20514;-78
2022/03/03 10:33:26;;;;;;;818.33;124.67;;;3.80;99.90;;;;;;4962161;28;20461;-78
2022/03/03 10:36:05;;;;;;;1037.90;171.30;;;3.90;99.90;;;;;;4961291;29;20477;-78
2022/03/03 10:38:35;;;;;;;923.30;196.90;;;3.90;99.90;;;;;;4962093;28;20427;-78
2022/03/03 10:41:04;;;;;;;1176.13;230.10;;;4.00;99.90;;;;;;4962707;28;20442;-78
2022/03/03 10:43:48;;;;;;;1131.70;197.40;;;4.00;99.90;;;;;;4961838;28;20458;-78
2022/03/03 10:46:16;;;;;;;1150.43;198.37;;;4.10;99.90;;;;;;4960965;29;20450;-78
2022/03/03 10:48:44;;;;;;;1256.83;223.83;;;4.10;99.90;;;;;;4961354;28;20454;-77
2022/03/03 10:51:16;;;;;;;1280.33;230.80;;;4.10;99.90;;;;;;4959760;28;20808;-77
2022/03/03 10:53:44;;;;;;;1166.10;178.93;;;4.20;99.90;;;;;;4961402;29;20487;-78
2022/03/03 10:56:16;;;;;;;1203.93;231.63;;;4.20;99.90;;;;;;4960140;29;20501;-78
2022/03/03 10:58:49;;;;;;;1134.07;192.50;;;4.30;99.90;;;;;;4961759;28;20620;-78
2022/03/03 11:01:19;;;;;;;1329.00;224.13;;;4.30;99.90;;;;;;4961232;28;20450;-78
2022/03/03 11:03:50;;;;;;;1188.03;204.23;;;4.40;99.90;;;;;;4962350;28;20466;-78
2022/03/03 11:06:20;;;;;;;1214.63;192.53;;;4.40;99.90;;;;;;4960567;28;20486;-78
2022/03/03 11:08:51;;;;;;;1547.90;276.03;;;4.40;99.90;;;;;;4962033;28;20444;-78
2022/03/03 11:11:22;;;;;;;1319.03;266.50;;;4.50;99.90;;;;;;4962245;28;20465;-78
2022/03/03 11:13:51;;;;;;;1176.50;259.70;;;4.50;99.90;;;;;;4960401;28;20572;-78
2022/03/03 11:16:21;;;;;;;1400.70;251.63;;;4.60;99.90;;;;;;4960074;28;20481;-78
2022/03/03 11:18:50;;;;;;;1721.93;341.87;;;4.60;99.90;;;;;;4961703;28;20438;-78
2022/03/03 11:21:18;;;;;;;1126.73;236.13;;;4.70;99.90;;;;;;4959931;28;20530;-78
2022/03/03 11:23:48;;;;;;;1999.90;506.57;;;4.70;99.90;;;;;;4962039;28;20560;-78
2022/03/03 11:26:23;;;;;;;1793.63;355.80;;;4.80;99.90;;;;;;4962639;29;20509;-78
2022/03/03 11:29:01;;;;;;;1580.70;331.33;;;4.90;99.90;;;;;;4962507;29;20468;-79
2022/03/03 11:31:32;;;;;;;1999.90;572.13;;;4.90;99.90;;;;;;4960347;29;20450;-78
2022/03/03 11:34:23;;;;;;;1633.63;371.50;;;5.00;99.90;;;;;;4961325;28;20462;-78
2022/03/03 11:36:59;;;;;;;1294.63;266.13;;;5.00;99.90;;;;;;4959843;28;20477;-78
2022/03/03 11:39:44;;;;;;;1423.30;364.37;;;5.00;99.90;;;;;;4960288;28;20472;-78
2022/03/03 11:42:24;;;;;;;1663.37;384.07;;;5.10;99.90;;;;;;4960329;29;20546;-78
2022/03/03 11:44:54;;;;;;;1943.40;513.07;;;5.20;99.90;;;;;;4958126;29;20526;-78
2022/03/03 11:47:25;;;;;;;1999.90;628.63;;;5.20;99.90;;;;;;4958838;28;20514;-78
2022/03/03 11:50:12;;;;;;;1999.90;597.73;;;5.30;99.90;;;;;;4960559;29;20422;-78
2022/03/03 11:52:42;;;;;;;1920.17;514.60;;;5.40;99.90;;;;;;4961270;29;20976;-78
2022/03/03 11:55:32;;;;;;;1999.90;790.83;;;5.40;99.90;;;;;;4959489;29;20529;-78
2022/03/03 11:58:07;;;;;;;1999.90;506.77;;;5.50;99.90;;;;;;4960948;28;20549;-78
2022/03/03 12:00:39;;;;;;;1999.90;879.37;;;5.60;99.90;;;;;;4959179;29;20450;-78
2022/03/03 12:03:09;;;;;;;1999.90;836.73;;;5.60;99.90;;;;;;4960881;29;20486;-78
2022/03/03 12:05:46;;;;;;;1999.90;469.47;;;5.70;99.90;;;;;;4961350;29;20910;-78
2022/03/03 12:08:35;;;;;;;1999.90;900.17;;;5.80;99.90;;;;;;4960484;28;20442;-78
2022/03/03 12:11:06;;;;;;;1999.90;999.90;;;5.80;99.90;;;;;;4961199;29;20462;-79
2022/03/03 12:13:45;;;;;;;1976.53;143.77;;;5.90;99.90;;;;;;4960307;29;20472;-78
2022/03/03 12:16:30;;;;;;;1999.90;197.37;;;6.00;99.90;;;;;;4960452;29;20467;-79
2022/03/03 12:19:14;;;;;;;1999.90;999.90;;;6.00;99.90;;;;;;4960303;28;20849;-78
2022/03/03 12:21:44;;;;;;;1999.90;999.90;;;6.10;99.90;;;;;;4960333;28;20503;-78
2022/03/03 12:24:31;;;;;;;1999.90;999.90;;;6.20;99.90;;;;;;4961302;29;20471;-78
2022/03/03 12:27:15;;;;;;;1999.90;837.93;;;6.30;99.90;;;;;;4961416;28;20454;-78
2022/03/03 12:29:59;;;;;;;1999.90;568.53;;;6.30;99.90;;;;;;4962239;28;20423;-78